createdAt,value
2022-10-21T00:01:49.540Z,10.03
2022-10-21T00:04:52.349Z,10.07
2022-10-21T00:07:55.085Z,10.07
2022-10-21T00:10:59.910Z,9.60
2022-10-21T00:14:02.647Z,10.03
2022-10-21T00:17:07.826Z,10.03
2022-10-21T00:20:13.009Z,10.20
2022-10-21T00:23:15.788Z,10.37
2022-10-21T00:26:20.880Z,9.63
2022-10-21T00:29:23.657Z,10.47
2022-10-21T00:32:27.805Z,10.50
2022-10-21T00:35:33.357Z,10.40
2022-10-21T00:38:37.309Z,14.00
2022-10-21T00:41:40.131Z,10.73
2022-10-21T00:44:43.385Z,9.63
2022-10-21T00:47:51.591Z,10.87
2022-10-21T00:50:58.439Z,10.03
2022-10-21T00:54:03.470Z,10.03
2022-10-21T00:57:06.618Z,11.67
2022-10-21T01:00:09.948Z,13.07
2022-10-21T01:03:14.593Z,11.50
2022-10-21T01:06:19.591Z,10.80
2022-10-21T01:09:23.109Z,11.00
2022-10-21T01:12:34.152Z,11.23
2022-10-21T01:15:42.660Z,10.83
2022-10-21T01:18:53.879Z,10.90
2022-10-21T01:22:04.384Z,9.67
2022-10-21T01:25:25.911Z,11.13
2022-10-21T01:28:40.500Z,12.90
2022-10-21T01:31:47.547Z,10.83
2022-10-21T01:34:58.485Z,10.90
2022-10-21T01:38:08.752Z,10.47
2022-10-21T01:41:15.072Z,11.70
2022-10-21T01:44:24.129Z,10.20
2022-10-21T01:47:34.451Z,10.63
2022-10-21T01:50:42.560Z,10.00
2022-10-21T01:53:50.278Z,10.57
2022-10-21T01:56:54.198Z,10.67
2022-10-21T01:59:59.511Z,10.83
2022-10-21T02:03:05.840Z,10.70
2022-10-21T02:06:08.924Z,9.80
2022-10-21T02:09:11.800Z,9.57
2022-10-21T02:12:16.362Z,10.27
2022-10-21T02:15:20.574Z,10.83
2022-10-21T02:18:26.364Z,12.63
2022-10-21T02:21:35.427Z,10.93
2022-10-21T02:24:41.300Z,13.30
2022-10-21T02:27:44.348Z,11.00
2022-10-21T02:30:56.601Z,11.03
2022-10-21T02:34:08.615Z,10.87
2022-10-21T02:37:19.361Z,10.73
2022-10-21T02:40:27.197Z,11.83
2022-10-21T02:43:32.977Z,9.70
2022-10-21T02:46:38.638Z,11.27
2022-10-21T02:49:44.228Z,10.83
2022-10-21T02:52:47.134Z,11.10
2022-10-21T02:55:49.857Z,10.80
2022-10-21T02:58:52.752Z,10.53
2022-10-21T03:01:55.680Z,14.10
2022-10-21T03:05:00.095Z,11.47
2022-10-21T03:08:02.870Z,11.27
2022-10-21T03:11:05.740Z,11.40
2022-10-21T03:14:08.489Z,13.17
2022-10-21T03:17:11.283Z,10.50
2022-10-21T03:20:16.502Z,11.80
2022-10-21T03:23:19.739Z,12.17
2022-10-21T03:26:22.542Z,10.63
2022-10-21T03:29:25.435Z,11.60
2022-10-21T03:32:28.255Z,14.73
2022-10-21T03:35:32.451Z,12.00
2022-10-21T03:38:35.220Z,11.70
2022-10-21T03:41:38.038Z,11.03
2022-10-21T03:44:40.880Z,11.67
2022-10-21T03:47:43.844Z,12.70
2022-10-21T03:50:47.993Z,11.77
2022-10-21T03:53:50.823Z,11.67
2022-10-21T03:56:53.663Z,11.57
2022-10-21T03:59:56.533Z,11.77
2022-10-21T04:02:59.306Z,12.43
2022-10-21T04:06:03.411Z,16.17
2022-10-21T04:09:06.287Z,12.73
2022-10-21T04:12:09.150Z,13.47
2022-10-21T04:15:13.707Z,12.40
2022-10-21T04:18:16.593Z,13.00
2022-10-21T04:21:20.749Z,12.60
2022-10-21T04:24:23.526Z,12.70
2022-10-21T04:27:26.251Z,13.00
2022-10-21T04:30:29.061Z,12.33
2022-10-21T04:33:31.960Z,12.80
2022-10-21T04:36:36.100Z,15.03
2022-10-21T04:39:38.946Z,13.27
2022-10-21T04:42:41.715Z,13.93
2022-10-21T04:45:44.493Z,14.23
2022-10-21T04:48:47.387Z,13.37
2022-10-21T04:51:51.550Z,14.13
2022-10-21T04:54:54.299Z,13.40
2022-10-21T04:57:57.077Z,13.40
2022-10-21T05:01:00.033Z,13.60
2022-10-21T05:04:02.897Z,13.37
2022-10-21T05:07:06.994Z,13.30
2022-10-21T05:10:10.502Z,14.67
2022-10-21T05:13:13.501Z,12.37
2022-10-21T05:16:16.326Z,13.67
2022-10-21T05:19:19.177Z,13.30
2022-10-21T05:22:23.337Z,13.57
2022-10-21T05:25:28.179Z,13.37
2022-10-21T05:28:33.159Z,14.40
2022-10-21T05:31:36.244Z,13.37
2022-10-21T05:34:39.045Z,13.67
2022-10-21T05:37:43.227Z,13.40
2022-10-21T05:40:45.958Z,13.73
2022-10-21T05:43:48.757Z,13.93
2022-10-21T05:46:51.491Z,13.77
2022-10-21T05:49:54.272Z,14.50
2022-10-21T05:52:59.428Z,15.63
2022-10-21T05:56:04.020Z,14.53
2022-10-21T05:59:09.368Z,14.07
2022-10-21T06:02:13.284Z,13.67
2022-10-21T06:05:16.200Z,15.23
2022-10-21T06:08:20.326Z,13.80
2022-10-21T06:11:23.186Z,13.63
2022-10-21T06:14:26.226Z,14.00
2022-10-21T06:17:28.970Z,14.77
2022-10-21T06:20:31.927Z,14.83
2022-10-21T06:23:36.320Z,14.07
2022-10-21T06:26:39.137Z,15.43
2022-10-21T06:29:42.094Z,15.10
2022-10-21T06:32:44.851Z,16.40
2022-10-21T06:35:48.012Z,14.20
2022-10-21T06:38:52.349Z,14.73
2022-10-21T06:41:55.103Z,14.67
2022-10-21T06:45:00.159Z,16.33
2022-10-21T06:48:03.445Z,15.10
2022-10-21T06:51:09.049Z,14.30
2022-10-21T06:54:13.191Z,15.57
2022-10-21T06:57:15.959Z,16.30
2022-10-21T07:00:18.835Z,17.60
2022-10-21T07:03:21.650Z,17.17
2022-10-21T07:06:24.486Z,17.97
2022-10-21T07:09:28.807Z,14.50
2022-10-21T07:12:32.280Z,15.97
2022-10-21T07:15:35.031Z,16.00
2022-10-21T07:18:40.507Z,16.70
2022-10-21T07:21:46.162Z,16.50
2022-10-21T07:24:50.403Z,16.43
2022-10-21T07:27:53.174Z,15.43
2022-10-21T07:30:55.954Z,16.57
2022-10-21T07:33:59.822Z,15.20
2022-10-21T07:37:02.906Z,17.13
2022-10-21T07:40:09.275Z,15.40
2022-10-21T07:46:18.472Z,15.47
2022-10-21T07:49:22.810Z,14.87
2022-10-21T07:52:25.555Z,14.80
2022-10-21T07:55:30.805Z,14.80
2022-10-21T07:58:34.003Z,14.40
2022-10-21T08:01:37.034Z,18.00
2022-10-21T08:04:39.917Z,15.10
2022-10-21T08:07:42.774Z,14.10
2022-10-21T08:10:46.945Z,13.87
2022-10-21T08:13:50.004Z,15.50
2022-10-21T08:16:53.722Z,15.50
2022-10-21T08:19:57.399Z,18.03
2022-10-21T08:23:00.289Z,16.93
2022-10-21T08:26:04.820Z,14.00
2022-10-21T08:29:07.543Z,13.80
2022-10-21T08:32:10.330Z,13.87
2022-10-21T08:35:13.073Z,14.30
2022-10-21T08:38:15.882Z,14.10
2022-10-21T08:41:57.947Z,13.83
2022-10-21T08:45:06.897Z,14.13
2022-10-21T08:48:15.791Z,14.20
2022-10-21T08:51:28.061Z,16.30
2022-10-21T08:54:39.988Z,15.27
2022-10-21T08:57:44.396Z,14.53
2022-10-21T09:00:49.537Z,13.80
2022-10-21T09:04:00.641Z,13.23
2022-10-21T09:07:09.841Z,13.47
2022-10-21T09:10:23.723Z,13.27
2022-10-21T09:13:50.270Z,13.97
2022-10-21T09:17:01.662Z,13.20
2022-10-21T09:20:14.540Z,14.20
2022-10-21T09:23:36.434Z,14.50
2022-10-21T09:26:42.432Z,14.00
2022-10-21T09:29:50.746Z,13.27
2022-10-21T09:32:58.208Z,15.97
2022-10-21T09:36:06.170Z,13.53
2022-10-21T09:39:15.842Z,12.57
2022-10-21T09:42:42.382Z,14.63
2022-10-21T09:45:46.083Z,16.23
2022-10-21T09:49:25.873Z,14.57
2022-10-21T09:52:16.111Z,13.27
2022-10-21T09:55:18.892Z,14.47
2022-10-21T09:58:26.898Z,13.77
2022-10-21T10:01:31.583Z,14.53
2022-10-21T10:04:35.896Z,12.93
2022-10-21T10:07:38.809Z,13.63
2022-10-21T10:10:41.774Z,13.87
2022-10-21T10:13:46.185Z,14.10
2022-10-21T10:16:50.317Z,13.83
2022-10-21T10:20:23.156Z,12.73
2022-10-21T10:23:25.993Z,13.73
2022-10-21T10:26:31.175Z,13.77
2022-10-21T10:29:35.739Z,11.73
2022-10-21T10:32:40.038Z,13.00
2022-10-21T10:35:49.352Z,12.70
2022-10-21T10:38:56.451Z,13.63
2022-10-21T10:41:59.726Z,13.27
2022-10-21T10:45:06.520Z,13.50
2022-10-21T10:48:23.268Z,12.77
2022-10-21T10:51:29.209Z,13.23
2022-10-21T10:54:32.071Z,14.23
2022-10-21T10:57:44.383Z,13.20
2022-10-21T11:00:58.499Z,12.47
2022-10-21T11:04:15.261Z,13.67
2022-10-21T11:07:26.191Z,13.93
2022-10-21T11:10:36.191Z,13.57
2022-10-21T11:13:42.225Z,13.53
2022-10-21T11:17:04.836Z,14.30
2022-10-21T11:20:18.692Z,14.43
2022-10-21T11:23:43.269Z,13.80
2022-10-21T11:26:54.461Z,13.80
2022-10-21T11:30:06.870Z,13.50
2022-10-21T11:33:19.387Z,13.47
2022-10-21T11:36:30.781Z,12.50
2022-10-21T11:39:46.119Z,14.70
2022-10-21T11:42:52.099Z,14.07
2022-10-21T11:46:01.992Z,13.23
2022-10-21T11:49:16.226Z,15.83
2022-10-21T11:52:34.856Z,12.90
2022-10-21T11:55:42.025Z,12.97
2022-10-21T11:58:57.011Z,13.73
2022-10-21T12:02:13.292Z,13.90
2022-10-21T12:05:26.058Z,13.47
2022-10-21T12:08:41.258Z,13.93
2022-10-21T12:11:51.862Z,13.47
2022-10-21T12:14:58.742Z,13.43
2022-10-21T12:18:04.305Z,13.70
2022-10-21T12:21:10.617Z,12.73
2022-10-21T12:24:25.690Z,12.10
2022-10-21T12:27:33.291Z,12.67
2022-10-21T12:30:41.747Z,13.60
2022-10-21T12:33:45.808Z,11.53
2022-10-21T12:36:50.621Z,13.10
2022-10-21T12:40:12.888Z,12.80
2022-10-21T12:43:22.397Z,14.00
2022-10-21T12:46:27.076Z,12.80
2022-10-21T12:49:32.690Z,14.13
2022-10-21T12:52:38.362Z,12.07
2022-10-21T12:55:49.428Z,12.47
2022-10-21T12:58:58.949Z,11.77
2022-10-21T13:02:24.547Z,11.13
2022-10-21T13:05:57.318Z,10.77
2022-10-21T13:09:00.230Z,11.67
2022-10-21T13:12:18.247Z,13.47
2022-10-21T13:15:46.957Z,11.37
2022-10-21T13:18:54.268Z,11.53
2022-10-21T13:22:04.172Z,12.03
2022-10-21T13:25:20.898Z,12.03
2022-10-21T13:28:25.623Z,9.97
2022-10-21T13:31:28.998Z,11.70
2022-10-21T13:34:33.169Z,11.17
2022-10-21T13:37:39.975Z,13.30
2022-10-21T13:40:48.767Z,17.07
2022-10-21T13:43:57.145Z,12.40
2022-10-21T13:46:59.961Z,10.93
2022-10-21T13:50:21.748Z,16.07
2022-10-21T13:53:35.505Z,12.07
2022-10-21T13:56:39.626Z,12.03
2022-10-21T13:59:43.776Z,12.77
2022-10-21T14:02:48.074Z,12.60
2022-10-21T14:05:52.855Z,15.50
2022-10-21T14:08:56.546Z,11.70
2022-10-21T14:12:03.381Z,12.90
2022-10-21T14:15:14.704Z,12.03
2022-10-21T14:18:32.379Z,12.47
2022-10-21T14:21:43.498Z,12.83
2022-10-21T14:24:48.296Z,12.23
2022-10-21T14:27:51.193Z,11.83
2022-10-21T14:30:55.466Z,11.57
2022-10-21T14:33:58.434Z,12.80
2022-10-21T14:37:09.155Z,11.90
2022-10-21T14:40:24.142Z,12.17
2022-10-21T14:43:33.962Z,13.10
2022-10-21T14:46:46.839Z,12.67
2022-10-21T14:49:51.823Z,12.97
2022-10-21T14:52:55.123Z,13.27
2022-10-21T14:56:00.030Z,13.53
2022-10-21T14:59:17.630Z,12.90
2022-10-21T15:02:26.303Z,12.67
2022-10-21T15:05:33.952Z,13.50
2022-10-21T15:08:37.040Z,10.83
2022-10-21T15:11:41.801Z,15.23
2022-10-21T15:14:44.608Z,12.60
2022-10-21T15:17:48.805Z,13.60
2022-10-21T15:20:54.549Z,11.40
2022-10-21T15:23:59.207Z,12.20
2022-10-21T15:27:03.019Z,10.37
2022-10-21T15:30:14.972Z,10.17
2022-10-21T15:33:19.119Z,10.43
2022-10-21T15:36:22.431Z,10.53
2022-10-21T15:39:25.205Z,11.50
2022-10-21T15:42:28.013Z,13.57
2022-10-21T15:45:30.887Z,12.03
2022-10-21T15:48:35.477Z,13.27
2022-10-21T15:51:38.247Z,12.30
2022-10-21T15:54:41.179Z,15.37
2022-10-21T15:57:44.539Z,14.00
2022-10-21T16:00:47.530Z,14.07
2022-10-21T16:03:51.949Z,14.30
2022-10-21T16:06:56.056Z,13.40
2022-10-21T16:09:58.835Z,13.53
2022-10-21T16:13:01.714Z,12.57
2022-10-21T16:16:05.321Z,11.33
2022-10-21T16:19:10.612Z,15.20
2022-10-21T16:22:17.731Z,19.17
2022-10-21T16:25:20.684Z,19.40
2022-10-21T16:28:23.381Z,15.47
2022-10-21T16:31:28.107Z,17.07
2022-10-21T16:34:32.238Z,19.80
2022-10-21T16:37:35.125Z,20.57
2022-10-21T16:40:38.077Z,16.97
2022-10-21T16:43:41.077Z,15.47
2022-10-21T16:46:49.871Z,16.43
2022-10-21T16:49:54.087Z,17.57
2022-10-21T16:52:57.033Z,16.47
2022-10-21T16:56:00.283Z,16.50
2022-10-21T16:59:03.230Z,18.33
2022-10-21T17:02:16.084Z,15.73
2022-10-21T17:05:20.455Z,16.00
2022-10-21T17:08:23.330Z,13.90
2022-10-21T17:11:31.886Z,15.80
2022-10-21T17:17:38.855Z,19.67
2022-10-21T17:20:43.303Z,16.20
2022-10-21T17:23:46.045Z,16.53
2022-10-21T17:26:48.841Z,19.80
2022-10-21T17:29:51.736Z,20.40
2022-10-21T17:32:54.526Z,22.03
2022-10-21T17:35:58.640Z,18.57
2022-10-21T17:39:01.491Z,22.00
2022-10-21T17:42:04.793Z,17.63
2022-10-21T17:45:09.985Z,19.37
2022-10-21T17:48:12.808Z,17.23
2022-10-21T17:51:16.994Z,18.00
2022-10-21T17:54:24.117Z,16.67
2022-10-21T17:57:33.038Z,16.03
2022-10-21T18:00:35.884Z,16.03
2022-10-21T18:03:38.675Z,18.53
2022-10-21T18:06:43.011Z,17.10
2022-10-21T18:09:45.724Z,18.43
2022-10-21T18:12:48.513Z,18.97
2022-10-21T18:15:51.927Z,19.03
2022-10-21T18:18:57.334Z,16.77
2022-10-21T18:22:05.042Z,17.63
2022-10-21T18:25:08.655Z,19.37
2022-10-21T18:28:11.938Z,20.00
2022-10-21T18:31:14.681Z,19.13
2022-10-21T18:34:17.867Z,20.07
2022-10-21T18:37:22.093Z,18.70
2022-10-21T18:40:25.342Z,22.53
2022-10-21T18:43:28.139Z,21.67
2022-10-21T18:46:31.840Z,21.60
2022-10-21T18:49:34.797Z,21.23
2022-10-21T18:52:38.931Z,17.87
2022-10-21T18:55:41.770Z,21.37
2022-10-21T18:58:45.413Z,18.73
2022-10-21T19:01:48.210Z,19.87
2022-10-21T19:04:51.649Z,23.00
2022-10-21T19:07:55.786Z,20.80
2022-10-21T19:10:58.522Z,19.93
2022-10-21T19:14:01.396Z,20.77
2022-10-21T19:17:04.225Z,22.10
2022-10-21T19:20:08.441Z,18.87
2022-10-21T19:23:12.548Z,20.20
2022-10-21T19:26:18.740Z,21.33
2022-10-21T19:29:24.233Z,22.10
2022-10-21T19:32:27.128Z,20.90
2022-10-21T19:35:30.182Z,19.40
2022-10-21T19:38:50.023Z,20.30
2022-10-21T19:41:52.775Z,19.47
2022-10-21T19:44:55.547Z,18.33
2022-10-21T19:47:58.273Z,18.90
2022-10-21T19:51:01.024Z,16.93
2022-10-21T19:54:06.695Z,18.10
2022-10-21T19:57:09.490Z,18.43
2022-10-21T20:00:13.630Z,19.43
2022-10-21T20:03:16.384Z,19.43
2022-10-21T20:06:21.494Z,19.10
2022-10-21T20:09:25.606Z,17.87
2022-10-21T20:12:28.403Z,18.17
2022-10-21T20:15:31.275Z,18.33
2022-10-21T20:18:34.472Z,16.43
2022-10-21T20:21:37.548Z,16.40
2022-10-21T20:24:45.570Z,18.83
2022-10-21T20:27:49.221Z,17.90
2022-10-21T20:30:59.917Z,14.67
2022-10-21T20:34:02.886Z,20.20
2022-10-21T20:37:05.654Z,16.80
2022-10-21T20:40:10.698Z,21.03
2022-10-21T20:43:13.626Z,19.20
2022-10-21T20:46:16.424Z,16.93
2022-10-21T20:49:19.389Z,18.17
2022-10-21T20:52:22.307Z,15.40
2022-10-21T20:55:26.481Z,17.60
2022-10-21T20:58:29.199Z,15.83
2022-10-21T21:01:34.153Z,14.07
2022-10-21T21:04:37.029Z,15.13
2022-10-21T21:07:40.028Z,16.07
2022-10-21T21:10:44.504Z,18.07
2022-10-21T21:13:47.290Z,16.10
2022-10-21T21:16:50.055Z,19.47
2022-10-21T21:19:53.081Z,21.80
2022-10-21T21:22:55.840Z,18.10
2022-10-21T21:26:05.386Z,17.77
2022-10-21T21:29:09.645Z,19.83
2022-10-21T21:32:12.458Z,23.00
2022-10-21T21:35:15.314Z,21.47
2022-10-21T21:38:18.113Z,21.97
2022-10-21T21:41:23.526Z,25.50
2022-10-21T21:44:26.309Z,22.77
2022-10-21T21:47:29.076Z,22.53
2022-10-21T21:50:31.807Z,21.57
2022-10-21T21:53:34.699Z,23.83
2022-10-21T21:56:38.828Z,22.80
2022-10-21T21:59:41.606Z,20.23
2022-10-21T22:02:44.568Z,20.80
2022-10-21T22:05:47.477Z,18.37
2022-10-21T22:08:50.732Z,20.10
2022-10-21T22:11:54.867Z,22.77
2022-10-21T22:14:57.958Z,21.37
2022-10-21T22:18:00.828Z,21.27
2022-10-21T22:21:05.589Z,26.50
2022-10-21T22:24:08.377Z,20.30
2022-10-21T22:27:12.622Z,17.37
2022-10-21T22:30:16.285Z,19.90
2022-10-21T22:33:19.079Z,23.73
2022-10-21T22:36:22.020Z,21.20
2022-10-21T22:39:25.557Z,23.43
2022-10-21T22:42:29.623Z,25.63
2022-10-21T22:45:32.929Z,23.30
2022-10-21T22:48:36.362Z,23.20
2022-10-21T22:51:39.217Z,24.10
2022-10-21T22:54:49.584Z,22.93
2022-10-21T22:57:54.107Z,23.93
2022-10-21T23:00:57.361Z,28.93
2022-10-21T23:04:02.733Z,24.20
2022-10-21T23:07:05.625Z,25.80
2022-10-21T23:10:09.509Z,21.37
2022-10-21T23:13:13.639Z,26.67
2022-10-21T23:16:16.396Z,24.03
2022-10-21T23:19:19.164Z,19.53
2022-10-21T23:22:21.947Z,21.17
2022-10-21T23:25:24.739Z,21.13
2022-10-21T23:28:28.824Z,22.57
2022-10-21T23:31:31.624Z,17.30
2022-10-21T23:34:34.409Z,20.50
2022-10-21T23:37:37.556Z,20.17
2022-10-21T23:40:40.709Z,17.40
2022-10-21T23:43:44.783Z,14.87
2022-10-21T23:46:47.776Z,16.80
2022-10-21T23:49:50.585Z,16.77
2022-10-21T23:52:53.334Z,15.07
2022-10-21T23:55:56.187Z,16.00
2022-10-21T23:59:01.010Z,17.70
